sensor_id;sensor_type;location;lat;lon;timestamp;P1;durP1;ratioP1;P2;durP2;ratioP2
11642;SDS011;5877;50.930;6.918;2022-10-22T00:01:07;7.03;;;3.93;;
11642;SDS011;5877;50.930;6.918;2022-10-22T00:03:34;6.33;;;3.63;;
11642;SDS011;5877;50.930;6.918;2022-10-22T00:06:02;7.70;;;3.63;;
11642;SDS011;5877;50.930;6.918;2022-10-22T00:08:29;7.83;;;3.70;;
11642;SDS011;5877;50.930;6.918;2022-10-22T00:10:56;8.00;;;3.43;;
11642;SDS011;5877;50.930;6.918;2022-10-22T00:13:23;7.17;;;3.47;;
11642;SDS011;5877;50.930;6.918;2022-10-22T00:15:50;6.27;;;3.40;;
11642;SDS011;5877;50.930;6.918;2022-10-22T00:18:17;7.30;;;3.90;;
11642;SDS011;5877;50.930;6.918;2022-10-22T00:20:45;5.90;;;3.10;;
11642;SDS011;5877;50.930;6.918;2022-10-22T00:23:12;6.17;;;3.43;;
11642;SDS011;5877;50.930;6.918;2022-10-22T00:25:42;10.63;;;3.90;;
11642;SDS011;5877;50.930;6.918;2022-10-22T00:28:08;6.00;;;3.43;;
11642;SDS011;5877;50.930;6.918;2022-10-22T00:30:36;4.70;;;3.43;;
11642;SDS011;5877;50.930;6.918;2022-10-22T00:33:03;8.43;;;3.70;;
11642;SDS011;5877;50.930;6.918;2022-10-22T00:35:30;6.83;;;3.80;;
11642;SDS011;5877;50.930;6.918;2022-10-22T00:37:57;8.33;;;3.50;;
11642;SDS011;5877;50.930;6.918;2022-10-22T00:40:25;10.53;;;3.87;;
11642;SDS011;5877;50.930;6.918;2022-10-22T00:42:52;8.97;;;3.63;;
11642;SDS011;5877;50.930;6.918;2022-10-22T00:45:21;6.93;;;3.70;;
11642;SDS011;5877;50.930;6.918;2022-10-22T00:53:25;8.07;;;3.53;;
11642;SDS011;5877;50.930;6.918;2022-10-22T00:55:57;6.53;;;3.80;;
11642;SDS011;5877;50.930;6.918;2022-10-22T00:58:25;5.13;;;3.53;;
11642;SDS011;5877;50.930;6.918;2022-10-22T01:00:54;6.63;;;3.63;;
11642;SDS011;5877;50.930;6.918;2022-10-22T01:03:22;6.77;;;3.50;;
11642;SDS011;5877;50.930;6.918;2022-10-22T01:05:56;9.80;;;3.33;;
11642;SDS011;5877;50.930;6.918;2022-10-22T01:11:26;6.07;;;3.20;;
11642;SDS011;5877;50.930;6.918;2022-10-22T01:14:50;6.77;;;3.73;;
11642;SDS011;5877;50.930;6.918;2022-10-22T01:17:15;6.17;;;3.63;;
11642;SDS011;5877;50.930;6.918;2022-10-22T01:20:02;7.43;;;3.57;;
11642;SDS011;5877;50.930;6.918;2022-10-22T01:25:36;5.03;;;3.03;;
11642;SDS011;5877;50.930;6.918;2022-10-22T01:31:17;9.87;;;3.30;;
11642;SDS011;5877;50.930;6.918;2022-10-22T01:33:47;9.47;;;3.97;;
11642;SDS011;5877;50.930;6.918;2022-10-22T01:36:16;5.13;;;3.23;;
11642;SDS011;5877;50.930;6.918;2022-10-22T01:38:44;7.03;;;3.57;;
11642;SDS011;5877;50.930;6.918;2022-10-22T01:41:12;7.80;;;3.57;;
11642;SDS011;5877;50.930;6.918;2022-10-22T01:43:40;4.23;;;3.47;;
11642;SDS011;5877;50.930;6.918;2022-10-22T01:46:08;5.97;;;3.73;;
11642;SDS011;5877;50.930;6.918;2022-10-22T01:51:51;5.87;;;3.10;;
11642;SDS011;5877;50.930;6.918;2022-10-22T01:57:11;6.27;;;3.57;;
11642;SDS011;5877;50.930;6.918;2022-10-22T02:05:18;9.40;;;3.97;;
11642;SDS011;5877;50.930;6.918;2022-10-22T02:08:02;6.57;;;3.37;;
11642;SDS011;5877;50.930;6.918;2022-10-22T02:10:36;6.87;;;3.60;;
11642;SDS011;5877;50.930;6.918;2022-10-22T02:13:07;9.37;;;3.53;;
11642;SDS011;5877;50.930;6.918;2022-10-22T02:15:38;7.63;;;3.37;;
11642;SDS011;5877;50.930;6.918;2022-10-22T02:18:07;7.27;;;3.67;;
11642;SDS011;5877;50.930;6.918;2022-10-22T02:20:35;4.23;;;3.40;;
11642;SDS011;5877;50.930;6.918;2022-10-22T02:23:08;7.77;;;3.40;;
11642;SDS011;5877;50.930;6.918;2022-10-22T02:25:37;9.47;;;3.83;;
11642;SDS011;5877;50.930;6.918;2022-10-22T02:28:15;5.20;;;3.47;;
11642;SDS011;5877;50.930;6.918;2022-10-22T02:30:51;6.73;;;3.30;;
11642;SDS011;5877;50.930;6.918;2022-10-22T02:33:23;7.70;;;3.30;;
11642;SDS011;5877;50.930;6.918;2022-10-22T02:35:54;8.27;;;3.37;;
11642;SDS011;5877;50.930;6.918;2022-10-22T02:38:22;10.87;;;3.57;;
11642;SDS011;5877;50.930;6.918;2022-10-22T02:40:50;10.70;;;3.87;;
11642;SDS011;5877;50.930;6.918;2022-10-22T02:43:17;3.87;;;3.37;;
11642;SDS011;5877;50.930;6.918;2022-10-22T02:45:45;7.27;;;3.47;;
11642;SDS011;5877;50.930;6.918;2022-10-22T02:48:12;7.13;;;3.47;;
11642;SDS011;5877;50.930;6.918;2022-10-22T02:50:39;9.13;;;3.60;;
11642;SDS011;5877;50.930;6.918;2022-10-22T02:53:07;7.60;;;3.63;;
11642;SDS011;5877;50.930;6.918;2022-10-22T02:55:34;6.63;;;3.30;;
11642;SDS011;5877;50.930;6.918;2022-10-22T02:58:00;5.87;;;3.77;;
11642;SDS011;5877;50.930;6.918;2022-10-22T03:00:28;6.27;;;3.47;;
11642;SDS011;5877;50.930;6.918;2022-10-22T03:02:55;8.33;;;3.83;;
11642;SDS011;5877;50.930;6.918;2022-10-22T03:05:22;6.83;;;3.37;;
11642;SDS011;5877;50.930;6.918;2022-10-22T03:07:48;6.80;;;3.77;;
11642;SDS011;5877;50.930;6.918;2022-10-22T03:10:15;8.00;;;3.90;;
11642;SDS011;5877;50.930;6.918;2022-10-22T03:12:42;9.60;;;3.70;;
11642;SDS011;5877;50.930;6.918;2022-10-22T03:15:09;12.87;;;3.47;;
11642;SDS011;5877;50.930;6.918;2022-10-22T03:17:35;7.07;;;3.70;;
11642;SDS011;5877;50.930;6.918;2022-10-22T03:20:03;4.43;;;3.40;;
11642;SDS011;5877;50.930;6.918;2022-10-22T03:22:31;9.50;;;3.60;;
11642;SDS011;5877;50.930;6.918;2022-10-22T03:24:59;7.83;;;3.47;;
11642;SDS011;5877;50.930;6.918;2022-10-22T03:27:33;7.73;;;3.70;;
11642;SDS011;5877;50.930;6.918;2022-10-22T03:30:03;7.20;;;3.77;;
11642;SDS011;5877;50.930;6.918;2022-10-22T03:32:30;7.63;;;3.60;;
11642;SDS011;5877;50.930;6.918;2022-10-22T03:34:57;6.83;;;3.87;;
11642;SDS011;5877;50.930;6.918;2022-10-22T03:37:29;7.00;;;3.50;;
11642;SDS011;5877;50.930;6.918;2022-10-22T03:39:56;8.13;;;4.03;;
11642;SDS011;5877;50.930;6.918;2022-10-22T03:42:23;7.07;;;3.47;;
11642;SDS011;5877;50.930;6.918;2022-10-22T03:44:50;7.03;;;3.83;;
11642;SDS011;5877;50.930;6.918;2022-10-22T03:47:18;6.87;;;3.60;;
11642;SDS011;5877;50.930;6.918;2022-10-22T03:49:46;7.07;;;3.93;;
11642;SDS011;5877;50.930;6.918;2022-10-22T03:52:13;11.93;;;4.37;;
11642;SDS011;5877;50.930;6.918;2022-10-22T03:54:40;7.87;;;3.97;;
11642;SDS011;5877;50.930;6.918;2022-10-22T03:57:09;5.97;;;4.10;;
11642;SDS011;5877;50.930;6.918;2022-10-22T03:59:37;10.07;;;4.00;;
11642;SDS011;5877;50.930;6.918;2022-10-22T04:02:06;10.33;;;4.03;;
11642;SDS011;5877;50.930;6.918;2022-10-22T04:04:34;10.17;;;4.20;;
11642;SDS011;5877;50.930;6.918;2022-10-22T04:07:01;6.57;;;4.33;;
11642;SDS011;5877;50.930;6.918;2022-10-22T04:09:31;5.73;;;4.13;;
11642;SDS011;5877;50.930;6.918;2022-10-22T04:11:59;6.40;;;4.00;;
11642;SDS011;5877;50.930;6.918;2022-10-22T04:14:26;9.07;;;3.70;;
11642;SDS011;5877;50.930;6.918;2022-10-22T04:16:53;6.60;;;3.83;;
11642;SDS011;5877;50.930;6.918;2022-10-22T04:19:20;12.33;;;3.90;;
11642;SDS011;5877;50.930;6.918;2022-10-22T04:21:47;5.33;;;3.50;;
11642;SDS011;5877;50.930;6.918;2022-10-22T04:24:14;4.80;;;4.00;;
11642;SDS011;5877;50.930;6.918;2022-10-22T04:26:42;8.43;;;3.80;;
11642;SDS011;5877;50.930;6.918;2022-10-22T04:29:10;9.43;;;4.17;;
11642;SDS011;5877;50.930;6.918;2022-10-22T04:31:41;5.93;;;3.97;;
11642;SDS011;5877;50.930;6.918;2022-10-22T04:34:08;6.40;;;3.60;;
11642;SDS011;5877;50.930;6.918;2022-10-22T04:36:35;6.73;;;3.87;;
11642;SDS011;5877;50.930;6.918;2022-10-22T04:39:02;7.83;;;3.83;;
11642;SDS011;5877;50.930;6.918;2022-10-22T04:41:34;6.80;;;4.10;;
11642;SDS011;5877;50.930;6.918;2022-10-22T04:44:02;7.13;;;3.90;;
11642;SDS011;5877;50.930;6.918;2022-10-22T04:46:31;9.17;;;4.30;;
11642;SDS011;5877;50.930;6.918;2022-10-22T04:48:59;6.70;;;3.83;;
11642;SDS011;5877;50.930;6.918;2022-10-22T04:51:29;4.73;;;3.63;;
11642;SDS011;5877;50.930;6.918;2022-10-22T04:53:57;5.93;;;4.50;;
11642;SDS011;5877;50.930;6.918;2022-10-22T04:56:24;9.20;;;4.27;;
11642;SDS011;5877;50.930;6.918;2022-10-22T04:58:54;10.60;;;4.57;;
11642;SDS011;5877;50.930;6.918;2022-10-22T05:01:23;7.97;;;4.23;;
11642;SDS011;5877;50.930;6.918;2022-10-22T05:03:58;4.37;;;3.90;;
11642;SDS011;5877;50.930;6.918;2022-10-22T05:06:27;6.53;;;4.43;;
11642;SDS011;5877;50.930;6.918;2022-10-22T05:08:56;5.37;;;4.20;;
11642;SDS011;5877;50.930;6.918;2022-10-22T05:11:25;7.27;;;4.47;;
11642;SDS011;5877;50.930;6.918;2022-10-22T05:13:54;11.53;;;4.23;;
11642;SDS011;5877;50.930;6.918;2022-10-22T05:16:22;6.10;;;4.27;;
11642;SDS011;5877;50.930;6.918;2022-10-22T05:18:50;8.10;;;4.37;;
11642;SDS011;5877;50.930;6.918;2022-10-22T05:21:19;5.87;;;3.97;;
11642;SDS011;5877;50.930;6.918;2022-10-22T05:23:48;6.73;;;4.23;;
11642;SDS011;5877;50.930;6.918;2022-10-22T05:26:19;7.47;;;4.27;;
11642;SDS011;5877;50.930;6.918;2022-10-22T05:28:47;8.83;;;3.93;;
11642;SDS011;5877;50.930;6.918;2022-10-22T05:31:15;6.17;;;4.00;;
11642;SDS011;5877;50.930;6.918;2022-10-22T05:33:42;5.80;;;3.77;;
11642;SDS011;5877;50.930;6.918;2022-10-22T05:36:11;6.93;;;4.40;;
11642;SDS011;5877;50.930;6.918;2022-10-22T05:38:41;5.37;;;3.93;;
11642;SDS011;5877;50.930;6.918;2022-10-22T05:41:09;7.73;;;4.23;;
11642;SDS011;5877;50.930;6.918;2022-10-22T05:43:38;13.63;;;4.40;;
11642;SDS011;5877;50.930;6.918;2022-10-22T05:46:15;5.93;;;3.63;;
11642;SDS011;5877;50.930;6.918;2022-10-22T05:48:52;7.03;;;4.10;;
11642;SDS011;5877;50.930;6.918;2022-10-22T05:51:24;7.70;;;4.20;;
11642;SDS011;5877;50.930;6.918;2022-10-22T05:53:52;9.67;;;4.17;;
11642;SDS011;5877;50.930;6.918;2022-10-22T05:56:24;6.63;;;4.10;;
11642;SDS011;5877;50.930;6.918;2022-10-22T05:58:52;10.47;;;4.07;;
11642;SDS011;5877;50.930;6.918;2022-10-22T06:01:21;7.47;;;4.03;;
11642;SDS011;5877;50.930;6.918;2022-10-22T06:03:53;9.57;;;4.50;;
11642;SDS011;5877;50.930;6.918;2022-10-22T06:11:31;14.97;;;4.77;;
11642;SDS011;5877;50.930;6.918;2022-10-22T06:14:00;9.70;;;4.70;;
11642;SDS011;5877;50.930;6.918;2022-10-22T06:16:28;10.67;;;4.30;;
11642;SDS011;5877;50.930;6.918;2022-10-22T06:18:57;8.80;;;4.73;;
11642;SDS011;5877;50.930;6.918;2022-10-22T06:21:26;7.37;;;4.63;;
11642;SDS011;5877;50.930;6.918;2022-10-22T06:23:55;7.67;;;4.50;;
11642;SDS011;5877;50.930;6.918;2022-10-22T06:26:24;7.67;;;4.40;;
11642;SDS011;5877;50.930;6.918;2022-10-22T06:28:51;9.37;;;4.67;;
11642;SDS011;5877;50.930;6.918;2022-10-22T06:31:18;6.43;;;4.40;;
11642;SDS011;5877;50.930;6.918;2022-10-22T06:33:45;8.77;;;4.37;;
11642;SDS011;5877;50.930;6.918;2022-10-22T06:36:13;8.80;;;5.77;;
11642;SDS011;5877;50.930;6.918;2022-10-22T06:38:43;5.83;;;4.80;;
11642;SDS011;5877;50.930;6.918;2022-10-22T06:41:12;8.87;;;5.80;;
11642;SDS011;5877;50.930;6.918;2022-10-22T06:43:41;9.97;;;4.47;;
11642;SDS011;5877;50.930;6.918;2022-10-22T06:46:14;5.10;;;3.80;;
11642;SDS011;5877;50.930;6.918;2022-10-22T06:48:49;8.67;;;4.30;;
11642;SDS011;5877;50.930;6.918;2022-10-22T06:51:17;8.80;;;3.90;;
11642;SDS011;5877;50.930;6.918;2022-10-22T06:53:46;6.07;;;3.67;;
11642;SDS011;5877;50.930;6.918;2022-10-22T06:56:14;7.23;;;3.73;;
11642;SDS011;5877;50.930;6.918;2022-10-22T06:58:45;8.13;;;3.83;;
11642;SDS011;5877;50.930;6.918;2022-10-22T07:01:14;8.50;;;3.40;;
11642;SDS011;5877;50.930;6.918;2022-10-22T07:03:42;8.30;;;3.33;;
11642;SDS011;5877;50.930;6.918;2022-10-22T07:06:11;8.77;;;3.83;;
11642;SDS011;5877;50.930;6.918;2022-10-22T07:08:39;7.07;;;3.73;;
11642;SDS011;5877;50.930;6.918;2022-10-22T07:11:08;6.80;;;3.23;;
11642;SDS011;5877;50.930;6.918;2022-10-22T07:13:37;6.83;;;3.43;;
11642;SDS011;5877;50.930;6.918;2022-10-22T07:16:04;7.63;;;3.90;;
11642;SDS011;5877;50.930;6.918;2022-10-22T07:18:32;7.30;;;3.40;;
11642;SDS011;5877;50.930;6.918;2022-10-22T07:21:00;6.20;;;3.27;;
11642;SDS011;5877;50.930;6.918;2022-10-22T07:23:27;5.40;;;3.07;;
11642;SDS011;5877;50.930;6.918;2022-10-22T07:25:55;6.33;;;2.70;;
11642;SDS011;5877;50.930;6.918;2022-10-22T07:28:27;8.23;;;2.67;;
11642;SDS011;5877;50.930;6.918;2022-10-22T07:30:55;6.27;;;3.17;;
11642;SDS011;5877;50.930;6.918;2022-10-22T07:33:21;8.73;;;2.80;;
11642;SDS011;5877;50.930;6.918;2022-10-22T07:35:48;4.00;;;1.97;;
11642;SDS011;5877;50.930;6.918;2022-10-22T07:38:15;7.93;;;2.70;;
11642;SDS011;5877;50.930;6.918;2022-10-22T07:40:41;6.03;;;2.57;;
11642;SDS011;5877;50.930;6.918;2022-10-22T07:43:09;4.93;;;2.50;;
11642;SDS011;5877;50.930;6.918;2022-10-22T07:45:36;7.07;;;2.37;;
11642;SDS011;5877;50.930;6.918;2022-10-22T07:48:03;3.57;;;2.60;;
11642;SDS011;5877;50.930;6.918;2022-10-22T07:50:30;5.47;;;2.43;;
11642;SDS011;5877;50.930;6.918;2022-10-22T07:52:56;6.77;;;2.50;;
11642;SDS011;5877;50.930;6.918;2022-10-22T07:55:23;6.30;;;2.10;;
11642;SDS011;5877;50.930;6.918;2022-10-22T07:57:51;6.77;;;2.90;;
11642;SDS011;5877;50.930;6.918;2022-10-22T08:00:18;8.70;;;2.20;;
11642;SDS011;5877;50.930;6.918;2022-10-22T08:02:50;5.97;;;2.30;;
11642;SDS011;5877;50.930;6.918;2022-10-22T08:05:17;5.37;;;2.30;;
11642;SDS011;5877;50.930;6.918;2022-10-22T08:07:44;4.87;;;2.10;;
11642;SDS011;5877;50.930;6.918;2022-10-22T08:10:11;8.83;;;2.53;;
11642;SDS011;5877;50.930;6.918;2022-10-22T08:12:40;6.37;;;2.30;;
11642;SDS011;5877;50.930;6.918;2022-10-22T08:15:08;7.33;;;2.30;;
11642;SDS011;5877;50.930;6.918;2022-10-22T08:17:35;4.33;;;2.33;;
11642;SDS011;5877;50.930;6.918;2022-10-22T08:20:04;7.30;;;2.03;;
11642;SDS011;5877;50.930;6.918;2022-10-22T08:22:31;4.93;;;2.00;;
11642;SDS011;5877;50.930;6.918;2022-10-22T08:24:58;4.67;;;1.93;;
11642;SDS011;5877;50.930;6.918;2022-10-22T08:27:25;10.77;;;2.20;;
11642;SDS011;5877;50.930;6.918;2022-10-22T08:29:52;7.53;;;2.20;;
11642;SDS011;5877;50.930;6.918;2022-10-22T08:32:19;5.07;;;2.13;;
11642;SDS011;5877;50.930;6.918;2022-10-22T08:34:46;6.70;;;2.40;;
11642;SDS011;5877;50.930;6.918;2022-10-22T08:37:13;6.90;;;1.97;;
11642;SDS011;5877;50.930;6.918;2022-10-22T08:39:39;5.70;;;2.33;;
11642;SDS011;5877;50.930;6.918;2022-10-22T08:45:11;4.97;;;2.20;;
11642;SDS011;5877;50.930;6.918;2022-10-22T08:50:40;5.27;;;2.00;;
11642;SDS011;5877;50.930;6.918;2022-10-22T08:53:20;5.57;;;2.00;;
11642;SDS011;5877;50.930;6.918;2022-10-22T08:55:53;8.17;;;2.67;;
11642;SDS011;5877;50.930;6.918;2022-10-22T09:01:14;6.43;;;1.87;;
11642;SDS011;5877;50.930;6.918;2022-10-22T09:03:50;6.20;;;2.00;;
11642;SDS011;5877;50.930;6.918;2022-10-22T09:06:26;4.63;;;2.00;;
11642;SDS011;5877;50.930;6.918;2022-10-22T09:09:46;4.53;;;1.60;;
11642;SDS011;5877;50.930;6.918;2022-10-22T09:13:07;7.63;;;2.23;;
11642;SDS011;5877;50.930;6.918;2022-10-22T09:16:36;6.10;;;2.00;;
11642;SDS011;5877;50.930;6.918;2022-10-22T09:23:34;3.90;;;1.50;;
11642;SDS011;5877;50.930;6.918;2022-10-22T14:48:22;5.50;;;1.53;;
11642;SDS011;5877;50.930;6.918;2022-10-22T14:50:49;3.77;;;1.20;;
11642;SDS011;5877;50.930;6.918;2022-10-22T14:53:16;2.23;;;1.10;;
11642;SDS011;5877;50.930;6.918;2022-10-22T14:55:43;4.07;;;1.13;;
11642;SDS011;5877;50.930;6.918;2022-10-22T14:58:12;2.40;;;1.00;;
11642;SDS011;5877;50.930;6.918;2022-10-22T15:00:40;2.67;;;1.10;;
11642;SDS011;5877;50.930;6.918;2022-10-22T15:03:08;2.33;;;0.93;;
11642;SDS011;5877;50.930;6.918;2022-10-22T15:05:35;3.00;;;1.17;;
11642;SDS011;5877;50.930;6.918;2022-10-22T15:08:12;3.10;;;0.97;;
11642;SDS011;5877;50.930;6.918;2022-10-22T15:10:40;2.77;;;1.07;;
11642;SDS011;5877;50.930;6.918;2022-10-22T15:13:07;2.20;;;0.87;;
11642;SDS011;5877;50.930;6.918;2022-10-22T15:15:34;3.90;;;1.00;;
11642;SDS011;5877;50.930;6.918;2022-10-22T15:18:05;2.43;;;1.10;;
11642;SDS011;5877;50.930;6.918;2022-10-22T15:20:32;2.37;;;0.87;;
11642;SDS011;5877;50.930;6.918;2022-10-22T15:22:59;3.07;;;0.93;;
11642;SDS011;5877;50.930;6.918;2022-10-22T15:25:25;1.57;;;0.90;;
11642;SDS011;5877;50.930;6.918;2022-10-22T15:27:52;2.47;;;1.00;;
11642;SDS011;5877;50.930;6.918;2022-10-22T15:30:30;2.17;;;1.10;;
11642;SDS011;5877;50.930;6.918;2022-10-22T15:32:56;2.57;;;1.10;;
11642;SDS011;5877;50.930;6.918;2022-10-22T15:35:25;2.53;;;1.00;;
11642;SDS011;5877;50.930;6.918;2022-10-22T15:37:53;2.13;;;1.00;;
11642;SDS011;5877;50.930;6.918;2022-10-22T15:40:20;2.40;;;0.80;;
11642;SDS011;5877;50.930;6.918;2022-10-22T15:42:47;4.03;;;1.00;;
11642;SDS011;5877;50.930;6.918;2022-10-22T15:45:13;4.70;;;1.23;;
11642;SDS011;5877;50.930;6.918;2022-10-22T15:47:44;3.80;;;1.00;;
11642;SDS011;5877;50.930;6.918;2022-10-22T15:50:13;3.00;;;1.17;;
11642;SDS011;5877;50.930;6.918;2022-10-22T15:52:40;3.00;;;1.40;;
11642;SDS011;5877;50.930;6.918;2022-10-22T15:55:07;2.27;;;1.03;;
11642;SDS011;5877;50.930;6.918;2022-10-22T15:57:36;2.93;;;1.23;;
11642;SDS011;5877;50.930;6.918;2022-10-22T16:00:04;3.97;;;1.30;;
11642;SDS011;5877;50.930;6.918;2022-10-22T16:02:37;3.10;;;1.10;;
11642;SDS011;5877;50.930;6.918;2022-10-22T16:05:04;3.37;;;1.40;;
11642;SDS011;5877;50.930;6.918;2022-10-22T16:07:32;4.30;;;1.77;;
11642;SDS011;5877;50.930;6.918;2022-10-22T16:09:58;3.00;;;1.30;;
11642;SDS011;5877;50.930;6.918;2022-10-22T16:12:26;6.67;;;1.60;;
11642;SDS011;5877;50.930;6.918;2022-10-22T16:14:53;4.57;;;1.47;;
11642;SDS011;5877;50.930;6.918;2022-10-22T16:17:20;5.40;;;2.00;;
11642;SDS011;5877;50.930;6.918;2022-10-22T16:19:46;4.43;;;1.97;;
11642;SDS011;5877;50.930;6.918;2022-10-22T16:22:13;5.37;;;1.77;;
11642;SDS011;5877;50.930;6.918;2022-10-22T16:24:41;4.63;;;2.10;;
11642;SDS011;5877;50.930;6.918;2022-10-22T16:27:08;6.13;;;1.73;;
11642;SDS011;5877;50.930;6.918;2022-10-22T16:29:36;4.57;;;1.83;;
11642;SDS011;5877;50.930;6.918;2022-10-22T16:32:04;5.43;;;1.90;;
11642;SDS011;5877;50.930;6.918;2022-10-22T16:34:31;5.20;;;1.60;;
11642;SDS011;5877;50.930;6.918;2022-10-22T16:36:58;4.87;;;1.70;;
11642;SDS011;5877;50.930;6.918;2022-10-22T16:39:24;4.87;;;2.00;;
11642;SDS011;5877;50.930;6.918;2022-10-22T16:41:51;7.53;;;1.70;;
11642;SDS011;5877;50.930;6.918;2022-10-22T16:44:18;5.73;;;2.17;;
11642;SDS011;5877;50.930;6.918;2022-10-22T16:46:44;4.00;;;1.90;;
11642;SDS011;5877;50.930;6.918;2022-10-22T16:49:11;5.17;;;1.87;;
11642;SDS011;5877;50.930;6.918;2022-10-22T16:51:38;5.10;;;2.30;;
11642;SDS011;5877;50.930;6.918;2022-10-22T16:54:05;3.77;;;2.07;;
11642;SDS011;5877;50.930;6.918;2022-10-22T16:56:37;6.50;;;2.60;;
11642;SDS011;5877;50.930;6.918;2022-10-22T16:59:04;4.43;;;2.53;;
11642;SDS011;5877;50.930;6.918;2022-10-22T17:01:32;7.13;;;2.20;;
11642;SDS011;5877;50.930;6.918;2022-10-22T17:04:05;6.97;;;2.33;;
11642;SDS011;5877;50.930;6.918;2022-10-22T17:06:32;7.77;;;2.47;;
11642;SDS011;5877;50.930;6.918;2022-10-22T17:08:59;5.43;;;2.27;;
11642;SDS011;5877;50.930;6.918;2022-10-22T17:11:26;5.17;;;2.57;;
11642;SDS011;5877;50.930;6.918;2022-10-22T17:13:55;3.90;;;2.43;;
11642;SDS011;5877;50.930;6.918;2022-10-22T17:16:22;6.57;;;2.37;;
11642;SDS011;5877;50.930;6.918;2022-10-22T17:18:50;4.03;;;2.13;;
11642;SDS011;5877;50.930;6.918;2022-10-22T17:21:19;4.60;;;2.50;;
11642;SDS011;5877;50.930;6.918;2022-10-22T17:23:46;7.03;;;2.50;;
11642;SDS011;5877;50.930;6.918;2022-10-22T17:26:17;7.67;;;3.20;;
11642;SDS011;5877;50.930;6.918;2022-10-22T17:28:46;5.60;;;2.67;;
11642;SDS011;5877;50.930;6.918;2022-10-22T17:33:40;6.50;;;2.60;;
11642;SDS011;5877;50.930;6.918;2022-10-22T17:36:07;4.13;;;2.40;;
11642;SDS011;5877;50.930;6.918;2022-10-22T17:38:36;6.63;;;2.80;;
11642;SDS011;5877;50.930;6.918;2022-10-22T17:41:04;5.80;;;2.77;;
11642;SDS011;5877;50.930;6.918;2022-10-22T17:43:36;3.97;;;2.70;;
11642;SDS011;5877;50.930;6.918;2022-10-22T17:46:07;3.60;;;2.67;;
11642;SDS011;5877;50.930;6.918;2022-10-22T17:48:38;9.17;;;2.97;;
11642;SDS011;5877;50.930;6.918;2022-10-22T17:51:06;5.30;;;2.87;;
11642;SDS011;5877;50.930;6.918;2022-10-22T17:53:33;7.03;;;3.50;;
11642;SDS011;5877;50.930;6.918;2022-10-22T17:56:01;7.70;;;3.20;;
11642;SDS011;5877;50.930;6.918;2022-10-22T17:58:34;6.93;;;3.43;;
11642;SDS011;5877;50.930;6.918;2022-10-22T18:01:02;7.87;;;3.70;;
11642;SDS011;5877;50.930;6.918;2022-10-22T18:03:29;7.60;;;3.07;;
11642;SDS011;5877;50.930;6.918;2022-10-22T18:06:02;9.23;;;3.60;;
11642;SDS011;5877;50.930;6.918;2022-10-22T18:08:31;7.53;;;3.20;;
11642;SDS011;5877;50.930;6.918;2022-10-22T18:10:58;7.53;;;3.67;;
11642;SDS011;5877;50.930;6.918;2022-10-22T18:13:25;4.43;;;2.67;;
11642;SDS011;5877;50.930;6.918;2022-10-22T18:15:52;7.17;;;3.10;;
11642;SDS011;5877;50.930;6.918;2022-10-22T18:18:21;4.80;;;3.27;;
11642;SDS011;5877;50.930;6.918;2022-10-22T18:20:48;5.67;;;3.03;;
11642;SDS011;5877;50.930;6.918;2022-10-22T18:23:16;6.40;;;3.37;;
11642;SDS011;5877;50.930;6.918;2022-10-22T18:25:46;5.63;;;3.70;;
11642;SDS011;5877;50.930;6.918;2022-10-22T18:28:15;6.43;;;3.40;;
11642;SDS011;5877;50.930;6.918;2022-10-22T18:30:43;5.80;;;3.00;;
11642;SDS011;5877;50.930;6.918;2022-10-22T18:33:12;7.63;;;3.10;;
11642;SDS011;5877;50.930;6.918;2022-10-22T18:35:40;8.07;;;3.83;;
11642;SDS011;5877;50.930;6.918;2022-10-22T18:38:08;5.57;;;3.23;;
11642;SDS011;5877;50.930;6.918;2022-10-22T18:40:35;6.93;;;3.47;;
11642;SDS011;5877;50.930;6.918;2022-10-22T18:43:10;6.10;;;3.67;;
11642;SDS011;5877;50.930;6.918;2022-10-22T18:45:41;12.03;;;5.53;;
11642;SDS011;5877;50.930;6.918;2022-10-22T18:48:08;10.47;;;5.60;;
11642;SDS011;5877;50.930;6.918;2022-10-22T18:50:35;10.23;;;3.87;;
11642;SDS011;5877;50.930;6.918;2022-10-22T18:53:02;9.63;;;3.60;;
11642;SDS011;5877;50.930;6.918;2022-10-22T18:55:29;7.87;;;3.03;;
11642;SDS011;5877;50.930;6.918;2022-10-22T18:57:56;6.43;;;3.53;;
11642;SDS011;5877;50.930;6.918;2022-10-22T19:00:23;5.23;;;2.83;;
11642;SDS011;5877;50.930;6.918;2022-10-22T19:02:52;8.43;;;2.90;;
11642;SDS011;5877;50.930;6.918;2022-10-22T19:05:20;5.53;;;3.10;;
11642;SDS011;5877;50.930;6.918;2022-10-22T19:07:50;6.03;;;3.20;;
11642;SDS011;5877;50.930;6.918;2022-10-22T19:10:17;8.10;;;3.20;;
11642;SDS011;5877;50.930;6.918;2022-10-22T19:12:44;7.47;;;3.50;;
11642;SDS011;5877;50.930;6.918;2022-10-22T19:15:10;8.30;;;4.07;;
11642;SDS011;5877;50.930;6.918;2022-10-22T19:17:37;6.80;;;3.30;;
11642;SDS011;5877;50.930;6.918;2022-10-22T19:20:05;8.00;;;3.40;;
11642;SDS011;5877;50.930;6.918;2022-10-22T19:22:32;7.70;;;3.27;;
11642;SDS011;5877;50.930;6.918;2022-10-22T19:24:59;4.63;;;3.40;;
11642;SDS011;5877;50.930;6.918;2022-10-22T19:27:26;7.03;;;3.67;;
11642;SDS011;5877;50.930;6.918;2022-10-22T19:29:54;8.43;;;4.10;;
11642;SDS011;5877;50.930;6.918;2022-10-22T19:32:21;11.43;;;4.47;;
11642;SDS011;5877;50.930;6.918;2022-10-22T19:34:51;8.40;;;4.23;;
11642;SDS011;5877;50.930;6.918;2022-10-22T19:37:18;8.20;;;4.57;;
11642;SDS011;5877;50.930;6.918;2022-10-22T19:39:47;10.03;;;3.60;;
11642;SDS011;5877;50.930;6.918;2022-10-22T19:42:15;9.20;;;4.20;;
11642;SDS011;5877;50.930;6.918;2022-10-22T19:44:41;6.70;;;3.60;;
11642;SDS011;5877;50.930;6.918;2022-10-22T19:47:08;10.07;;;3.93;;
11642;SDS011;5877;50.930;6.918;2022-10-22T19:49:36;7.37;;;4.30;;
11642;SDS011;5877;50.930;6.918;2022-10-22T19:52:03;9.83;;;4.63;;
11642;SDS011;5877;50.930;6.918;2022-10-22T19:54:30;9.67;;;4.60;;
11642;SDS011;5877;50.930;6.918;2022-10-22T19:56:56;10.67;;;4.63;;
11642;SDS011;5877;50.930;6.918;2022-10-22T19:59:23;8.70;;;4.20;;
11642;SDS011;5877;50.930;6.918;2022-10-22T20:01:56;10.10;;;4.30;;
11642;SDS011;5877;50.930;6.918;2022-10-22T20:04:23;12.90;;;5.13;;
11642;SDS011;5877;50.930;6.918;2022-10-22T20:06:52;7.53;;;4.27;;
11642;SDS011;5877;50.930;6.918;2022-10-22T20:09:24;11.03;;;4.40;;
11642;SDS011;5877;50.930;6.918;2022-10-22T20:11:50;8.73;;;4.70;;
11642;SDS011;5877;50.930;6.918;2022-10-22T20:14:17;11.93;;;4.97;;
11642;SDS011;5877;50.930;6.918;2022-10-22T20:16:43;9.50;;;5.30;;
11642;SDS011;5877;50.930;6.918;2022-10-22T20:19:11;13.33;;;5.13;;
11642;SDS011;5877;50.930;6.918;2022-10-22T20:21:41;9.93;;;5.03;;
11642;SDS011;5877;50.930;6.918;2022-10-22T20:24:09;9.73;;;4.80;;
11642;SDS011;5877;50.930;6.918;2022-10-22T20:26:36;10.80;;;5.23;;
11642;SDS011;5877;50.930;6.918;2022-10-22T20:29:03;11.77;;;4.83;;
11642;SDS011;5877;50.930;6.918;2022-10-22T20:31:29;10.33;;;4.63;;
11642;SDS011;5877;50.930;6.918;2022-10-22T20:33:58;9.00;;;4.73;;
11642;SDS011;5877;50.930;6.918;2022-10-22T20:36:27;10.50;;;4.97;;
11642;SDS011;5877;50.930;6.918;2022-10-22T20:39:02;6.60;;;4.20;;
11642;SDS011;5877;50.930;6.918;2022-10-22T20:41:31;12.57;;;4.37;;
11642;SDS011;5877;50.930;6.918;2022-10-22T20:44:00;10.93;;;4.73;;
11642;SDS011;5877;50.930;6.918;2022-10-22T20:46:27;9.03;;;3.67;;
11642;SDS011;5877;50.930;6.918;2022-10-22T20:49:00;7.23;;;3.40;;
11642;SDS011;5877;50.930;6.918;2022-10-22T20:51:29;8.70;;;3.50;;
11642;SDS011;5877;50.930;6.918;2022-10-22T20:53:56;8.67;;;3.40;;
11642;SDS011;5877;50.930;6.918;2022-10-22T20:56:23;7.80;;;3.10;;
11642;SDS011;5877;50.930;6.918;2022-10-22T20:58:50;6.93;;;3.37;;
11642;SDS011;5877;50.930;6.918;2022-10-22T21:01:22;13.50;;;3.90;;
11642;SDS011;5877;50.930;6.918;2022-10-22T21:03:50;7.13;;;3.40;;
11642;SDS011;5877;50.930;6.918;2022-10-22T21:06:18;9.93;;;3.70;;
11642;SDS011;5877;50.930;6.918;2022-10-22T21:08:49;9.13;;;3.73;;
11642;SDS011;5877;50.930;6.918;2022-10-22T21:11:17;7.53;;;4.10;;
11642;SDS011;5877;50.930;6.918;2022-10-22T21:13:44;8.43;;;3.57;;
11642;SDS011;5877;50.930;6.918;2022-10-22T21:16:11;12.63;;;3.73;;
11642;SDS011;5877;50.930;6.918;2022-10-22T21:18:39;9.27;;;4.20;;
11642;SDS011;5877;50.930;6.918;2022-10-22T21:21:06;5.43;;;2.93;;